sensor_id;sensor_type;location;lat;lon;timestamp;P1;durP1;ratioP1;P2;durP2;ratioP2
16093;SDS011;8151;47.824;12.092;2023-01-19T00:00:55;5.30;;;3.80;;
16093;SDS011;8151;47.824;12.092;2023-01-19T00:03:23;4.30;;;3.80;;
16093;SDS011;8151;47.824;12.092;2023-01-19T00:05:52;4.63;;;3.93;;
16093;SDS011;8151;47.824;12.092;2023-01-19T00:08:21;5.07;;;4.10;;
16093;SDS011;8151;47.824;12.092;2023-01-19T00:10:51;11.20;;;7.53;;
16093;SDS011;8151;47.824;12.092;2023-01-19T00:13:20;18.20;;;11.10;;
16093;SDS011;8151;47.824;12.092;2023-01-19T00:15:49;7.60;;;4.17;;
16093;SDS011;8151;47.824;12.092;2023-01-19T00:18:17;6.13;;;4.70;;
16093;SDS011;8151;47.824;12.092;2023-01-19T00:20:48;5.43;;;4.30;;
16093;SDS011;8151;47.824;12.092;2023-01-19T00:23:16;5.53;;;4.37;;
16093;SDS011;8151;47.824;12.092;2023-01-19T00:25:47;7.37;;;5.47;;
16093;SDS011;8151;47.824;12.092;2023-01-19T00:28:17;6.97;;;5.00;;
16093;SDS011;8151;47.824;12.092;2023-01-19T00:30:45;8.80;;;4.70;;
16093;SDS011;8151;47.824;12.092;2023-01-19T00:33:14;5.93;;;4.70;;
16093;SDS011;8151;47.824;12.092;2023-01-19T00:35:42;6.57;;;5.20;;
16093;SDS011;8151;47.824;12.092;2023-01-19T00:38:11;7.53;;;4.70;;
16093;SDS011;8151;47.824;12.092;2023-01-19T00:40:39;7.37;;;5.07;;
16093;SDS011;8151;47.824;12.092;2023-01-19T00:43:09;7.93;;;4.97;;
16093;SDS011;8151;47.824;12.092;2023-01-19T00:45:38;8.00;;;5.50;;
16093;SDS011;8151;47.824;12.092;2023-01-19T00:48:07;7.83;;;5.00;;
16093;SDS011;8151;47.824;12.092;2023-01-19T00:50:36;6.83;;;5.03;;
16093;SDS011;8151;47.824;12.092;2023-01-19T00:53:04;7.23;;;5.00;;
16093;SDS011;8151;47.824;12.092;2023-01-19T00:55:33;6.53;;;5.63;;
16093;SDS011;8151;47.824;12.092;2023-01-19T00:58:01;7.13;;;5.90;;
16093;SDS011;8151;47.824;12.092;2023-01-19T01:00:31;7.47;;;5.53;;
16093;SDS011;8151;47.824;12.092;2023-01-19T01:03:00;10.40;;;6.40;;
16093;SDS011;8151;47.824;12.092;2023-01-19T01:05:29;7.07;;;5.40;;
16093;SDS011;8151;47.824;12.092;2023-01-19T01:07:57;8.17;;;5.77;;
16093;SDS011;8151;47.824;12.092;2023-01-19T01:10:27;9.10;;;6.50;;
16093;SDS011;8151;47.824;12.092;2023-01-19T01:12:56;7.57;;;5.73;;
16093;SDS011;8151;47.824;12.092;2023-01-19T01:15:47;7.57;;;5.97;;
16093;SDS011;8151;47.824;12.092;2023-01-19T01:18:16;8.93;;;6.43;;
16093;SDS011;8151;47.824;12.092;2023-01-19T01:20:44;8.17;;;5.77;;
16093;SDS011;8151;47.824;12.092;2023-01-19T01:23:13;7.53;;;6.03;;
16093;SDS011;8151;47.824;12.092;2023-01-19T01:25:42;8.87;;;6.73;;
16093;SDS011;8151;47.824;12.092;2023-01-19T01:28:12;10.93;;;6.60;;
16093;SDS011;8151;47.824;12.092;2023-01-19T01:30:40;9.67;;;6.60;;
16093;SDS011;8151;47.824;12.092;2023-01-19T01:33:11;9.57;;;6.37;;
16093;SDS011;8151;47.824;12.092;2023-01-19T01:35:39;7.27;;;5.70;;
16093;SDS011;8151;47.824;12.092;2023-01-19T01:38:08;6.80;;;5.70;;
16093;SDS011;8151;47.824;12.092;2023-01-19T01:40:37;8.33;;;6.20;;
16093;SDS011;8151;47.824;12.092;2023-01-19T01:43:08;11.90;;;7.53;;
16093;SDS011;8151;47.824;12.092;2023-01-19T01:45:39;8.27;;;6.13;;
16093;SDS011;8151;47.824;12.092;2023-01-19T01:48:08;8.73;;;6.43;;
16093;SDS011;8151;47.824;12.092;2023-01-19T01:50:42;9.20;;;6.80;;
16093;SDS011;8151;47.824;12.092;2023-01-19T01:53:29;8.90;;;6.97;;
16093;SDS011;8151;47.824;12.092;2023-01-19T01:55:59;11.57;;;6.93;;
16093;SDS011;8151;47.824;12.092;2023-01-19T01:58:33;14.63;;;7.40;;
16093;SDS011;8151;47.824;12.092;2023-01-19T02:01:02;10.70;;;7.17;;
16093;SDS011;8151;47.824;12.092;2023-01-19T02:03:51;8.70;;;6.90;;
16093;SDS011;8151;47.824;12.092;2023-01-19T02:06:20;7.80;;;6.20;;
16093;SDS011;8151;47.824;12.092;2023-01-19T02:08:49;10.10;;;7.13;;
16093;SDS011;8151;47.824;12.092;2023-01-19T02:11:38;10.63;;;7.27;;
16093;SDS011;8151;47.824;12.092;2023-01-19T02:14:26;12.03;;;7.50;;
16093;SDS011;8151;47.824;12.092;2023-01-19T02:16:55;10.70;;;7.37;;
16093;SDS011;8151;47.824;12.092;2023-01-19T02:19:25;11.83;;;7.90;;
16093;SDS011;8151;47.824;12.092;2023-01-19T02:22:00;10.70;;;7.90;;
16093;SDS011;8151;47.824;12.092;2023-01-19T02:24:35;11.37;;;7.83;;
16093;SDS011;8151;47.824;12.092;2023-01-19T02:27:04;10.73;;;7.87;;
16093;SDS011;8151;47.824;12.092;2023-01-19T02:29:34;10.93;;;7.83;;
16093;SDS011;8151;47.824;12.092;2023-01-19T02:32:03;8.63;;;7.07;;
16093;SDS011;8151;47.824;12.092;2023-01-19T02:34:32;10.00;;;6.83;;
16093;SDS011;8151;47.824;12.092;2023-01-19T02:37:01;7.77;;;5.90;;
16093;SDS011;8151;47.824;12.092;2023-01-19T02:39:37;7.70;;;5.87;;
16093;SDS011;8151;47.824;12.092;2023-01-19T02:42:09;9.23;;;6.53;;
16093;SDS011;8151;47.824;12.092;2023-01-19T02:44:40;7.83;;;5.30;;
16093;SDS011;8151;47.824;12.092;2023-01-19T02:47:12;10.17;;;6.43;;
16093;SDS011;8151;47.824;12.092;2023-01-19T02:49:41;10.13;;;6.70;;
16093;SDS011;8151;47.824;12.092;2023-01-19T02:52:11;9.13;;;5.90;;
16093;SDS011;8151;47.824;12.092;2023-01-19T02:54:47;9.13;;;6.23;;
16093;SDS011;8151;47.824;12.092;2023-01-19T02:57:28;9.33;;;6.10;;
16093;SDS011;8151;47.824;12.092;2023-01-19T03:00:16;8.20;;;6.13;;
16093;SDS011;8151;47.824;12.092;2023-01-19T03:02:56;7.37;;;5.37;;
16093;SDS011;8151;47.824;12.092;2023-01-19T03:05:38;11.40;;;5.80;;
16093;SDS011;8151;47.824;12.092;2023-01-19T03:08:21;9.23;;;5.70;;
16093;SDS011;8151;47.824;12.092;2023-01-19T03:11:00;7.47;;;5.67;;
16093;SDS011;8151;47.824;12.092;2023-01-19T03:13:32;9.37;;;5.63;;
16093;SDS011;8151;47.824;12.092;2023-01-19T03:16:10;8.43;;;6.17;;
16093;SDS011;8151;47.824;12.092;2023-01-19T03:18:43;8.53;;;5.87;;
16093;SDS011;8151;47.824;12.092;2023-01-19T03:21:14;7.67;;;5.80;;
16093;SDS011;8151;47.824;12.092;2023-01-19T03:23:45;10.43;;;6.30;;
16093;SDS011;8151;47.824;12.092;2023-01-19T03:26:19;9.57;;;6.13;;
16093;SDS011;8151;47.824;12.092;2023-01-19T03:28:51;12.07;;;6.77;;
16093;SDS011;8151;47.824;12.092;2023-01-19T03:31:23;9.80;;;6.63;;
16093;SDS011;8151;47.824;12.092;2023-01-19T03:33:55;10.97;;;7.30;;
16093;SDS011;8151;47.824;12.092;2023-01-19T03:36:29;11.47;;;7.13;;
16093;SDS011;8151;47.824;12.092;2023-01-19T03:39:01;11.80;;;6.80;;
16093;SDS011;8151;47.824;12.092;2023-01-19T03:41:33;10.20;;;7.13;;
16093;SDS011;8151;47.824;12.092;2023-01-19T03:44:05;10.90;;;6.83;;
16093;SDS011;8151;47.824;12.092;2023-01-19T03:46:34;9.27;;;5.60;;
16093;SDS011;8151;47.824;12.092;2023-01-19T03:49:03;8.53;;;6.50;;
16093;SDS011;8151;47.824;12.092;2023-01-19T03:51:33;9.53;;;6.60;;
16093;SDS011;8151;47.824;12.092;2023-01-19T03:54:03;9.70;;;6.87;;
16093;SDS011;8151;47.824;12.092;2023-01-19T03:56:33;8.33;;;6.77;;
16093;SDS011;8151;47.824;12.092;2023-01-19T03:59:02;7.63;;;5.77;;
16093;SDS011;8151;47.824;12.092;2023-01-19T04:01:31;7.53;;;6.43;;
16093;SDS011;8151;47.824;12.092;2023-01-19T04:04:00;7.93;;;6.13;;
16093;SDS011;8151;47.824;12.092;2023-01-19T04:06:28;7.77;;;5.70;;
16093;SDS011;8151;47.824;12.092;2023-01-19T04:08:57;8.60;;;6.37;;
16093;SDS011;8151;47.824;12.092;2023-01-19T04:11:26;10.63;;;5.87;;
16093;SDS011;8151;47.824;12.092;2023-01-19T04:13:56;7.67;;;5.50;;
16093;SDS011;8151;47.824;12.092;2023-01-19T04:16:24;8.40;;;5.30;;
16093;SDS011;8151;47.824;12.092;2023-01-19T04:18:52;10.30;;;5.77;;
16093;SDS011;8151;47.824;12.092;2023-01-19T04:21:21;8.87;;;5.43;;
16093;SDS011;8151;47.824;12.092;2023-01-19T04:23:50;7.23;;;4.50;;
16093;SDS011;8151;47.824;12.092;2023-01-19T04:26:18;7.27;;;4.37;;
16093;SDS011;8151;47.824;12.092;2023-01-19T04:28:47;10.17;;;4.67;;
16093;SDS011;8151;47.824;12.092;2023-01-19T04:31:17;6.83;;;4.77;;
16093;SDS011;8151;47.824;12.092;2023-01-19T04:33:46;5.80;;;4.30;;
16093;SDS011;8151;47.824;12.092;2023-01-19T04:36:14;8.40;;;5.17;;
16093;SDS011;8151;47.824;12.092;2023-01-19T04:38:42;6.03;;;5.03;;
16093;SDS011;8151;47.824;12.092;2023-01-19T04:41:12;5.80;;;4.57;;
16093;SDS011;8151;47.824;12.092;2023-01-19T04:43:40;6.67;;;4.83;;
16093;SDS011;8151;47.824;12.092;2023-01-19T04:46:09;5.67;;;4.40;;
16093;SDS011;8151;47.824;12.092;2023-01-19T04:48:39;5.53;;;4.83;;
16093;SDS011;8151;47.824;12.092;2023-01-19T04:51:08;6.83;;;4.87;;
16093;SDS011;8151;47.824;12.092;2023-01-19T04:53:36;7.53;;;4.80;;
16093;SDS011;8151;47.824;12.092;2023-01-19T04:56:05;8.73;;;4.97;;
16093;SDS011;8151;47.824;12.092;2023-01-19T04:58:33;5.47;;;4.30;;
16093;SDS011;8151;47.824;12.092;2023-01-19T05:01:05;6.90;;;5.20;;
16093;SDS011;8151;47.824;12.092;2023-01-19T05:03:34;10.83;;;4.40;;
16093;SDS011;8151;47.824;12.092;2023-01-19T05:06:04;4.90;;;3.90;;
16093;SDS011;8151;47.824;12.092;2023-01-19T05:08:33;5.43;;;4.67;;
16093;SDS011;8151;47.824;12.092;2023-01-19T05:11:02;10.53;;;4.40;;
16093;SDS011;8151;47.824;12.092;2023-01-19T05:13:30;7.93;;;4.70;;
16093;SDS011;8151;47.824;12.092;2023-01-19T05:15:59;6.53;;;4.53;;
16093;SDS011;8151;47.824;12.092;2023-01-19T05:18:27;9.57;;;5.07;;
16093;SDS011;8151;47.824;12.092;2023-01-19T05:21:01;9.07;;;4.80;;
16093;SDS011;8151;47.824;12.092;2023-01-19T05:23:32;5.27;;;4.57;;
16093;SDS011;8151;47.824;12.092;2023-01-19T05:26:01;8.67;;;5.27;;
16093;SDS011;8151;47.824;12.092;2023-01-19T05:28:30;9.77;;;5.77;;
16093;SDS011;8151;47.824;12.092;2023-01-19T05:30:59;7.83;;;5.60;;
16093;SDS011;8151;47.824;12.092;2023-01-19T05:33:28;9.27;;;5.70;;
16093;SDS011;8151;47.824;12.092;2023-01-19T05:35:56;7.83;;;5.97;;
16093;SDS011;8151;47.824;12.092;2023-01-19T05:38:25;6.33;;;4.60;;
16093;SDS011;8151;47.824;12.092;2023-01-19T05:41:02;8.77;;;5.07;;
16093;SDS011;8151;47.824;12.092;2023-01-19T05:43:31;7.83;;;4.90;;
16093;SDS011;8151;47.824;12.092;2023-01-19T05:45:59;8.60;;;5.23;;
16093;SDS011;8151;47.824;12.092;2023-01-19T05:48:30;7.87;;;5.50;;
16093;SDS011;8151;47.824;12.092;2023-01-19T05:50:58;6.63;;;5.23;;
16093;SDS011;8151;47.824;12.092;2023-01-19T05:53:27;8.60;;;5.10;;
16093;SDS011;8151;47.824;12.092;2023-01-19T05:55:59;5.07;;;4.47;;
16093;SDS011;8151;47.824;12.092;2023-01-19T05:58:29;8.60;;;4.77;;
16093;SDS011;8151;47.824;12.092;2023-01-19T06:01:00;8.23;;;5.20;;
16093;SDS011;8151;47.824;12.092;2023-01-19T06:03:31;6.77;;;5.37;;
16093;SDS011;8151;47.824;12.092;2023-01-19T06:06:00;8.17;;;5.80;;
16093;SDS011;8151;47.824;12.092;2023-01-19T06:08:33;10.70;;;5.83;;
16093;SDS011;8151;47.824;12.092;2023-01-19T06:11:01;5.70;;;4.77;;
16093;SDS011;8151;47.824;12.092;2023-01-19T06:13:34;8.00;;;5.00;;
16093;SDS011;8151;47.824;12.092;2023-01-19T06:16:02;9.37;;;5.30;;
16093;SDS011;8151;47.824;12.092;2023-01-19T06:18:31;9.23;;;5.30;;
16093;SDS011;8151;47.824;12.092;2023-01-19T06:21:02;7.17;;;4.97;;
16093;SDS011;8151;47.824;12.092;2023-01-19T06:23:31;7.90;;;5.23;;
16093;SDS011;8151;47.824;12.092;2023-01-19T06:26:01;8.50;;;5.43;;
16093;SDS011;8151;47.824;12.092;2023-01-19T06:28:29;8.47;;;5.27;;
16093;SDS011;8151;47.824;12.092;2023-01-19T06:30:59;8.53;;;5.40;;
16093;SDS011;8151;47.824;12.092;2023-01-19T06:33:29;8.23;;;5.47;;
16093;SDS011;8151;47.824;12.092;2023-01-19T06:36:08;12.07;;;6.30;;
16093;SDS011;8151;47.824;12.092;2023-01-19T06:38:36;11.63;;;6.40;;
16093;SDS011;8151;47.824;12.092;2023-01-19T06:41:05;8.87;;;5.67;;
16093;SDS011;8151;47.824;12.092;2023-01-19T06:43:33;9.77;;;6.53;;
16093;SDS011;8151;47.824;12.092;2023-01-19T06:46:03;11.37;;;7.73;;
16093;SDS011;8151;47.824;12.092;2023-01-19T06:48:32;21.47;;;11.53;;
16093;SDS011;8151;47.824;12.092;2023-01-19T06:51:00;39.23;;;19.60;;
16093;SDS011;8151;47.824;12.092;2023-01-19T06:53:28;28.63;;;16.20;;
16093;SDS011;8151;47.824;12.092;2023-01-19T06:55:57;15.67;;;8.80;;
16093;SDS011;8151;47.824;12.092;2023-01-19T06:58:27;11.60;;;6.67;;
16093;SDS011;8151;47.824;12.092;2023-01-19T07:00:59;11.43;;;6.90;;
16093;SDS011;8151;47.824;12.092;2023-01-19T07:03:29;10.37;;;7.13;;
16093;SDS011;8151;47.824;12.092;2023-01-19T07:05:58;14.47;;;6.97;;
16093;SDS011;8151;47.824;12.092;2023-01-19T07:08:28;11.73;;;6.93;;
16093;SDS011;8151;47.824;12.092;2023-01-19T07:10:58;11.07;;;7.40;;
16093;SDS011;8151;47.824;12.092;2023-01-19T07:13:47;21.83;;;7.53;;
16093;SDS011;8151;47.824;12.092;2023-01-19T07:16:17;19.03;;;9.00;;
16093;SDS011;8151;47.824;12.092;2023-01-19T07:18:47;15.00;;;9.07;;
16093;SDS011;8151;47.824;12.092;2023-01-19T07:21:16;17.07;;;7.80;;
16093;SDS011;8151;47.824;12.092;2023-01-19T07:23:46;9.67;;;7.33;;
16093;SDS011;8151;47.824;12.092;2023-01-19T07:26:15;13.90;;;7.20;;
16093;SDS011;8151;47.824;12.092;2023-01-19T07:28:45;12.57;;;8.13;;
16093;SDS011;8151;47.824;12.092;2023-01-19T07:31:14;15.70;;;7.40;;
16093;SDS011;8151;47.824;12.092;2023-01-19T07:33:43;11.67;;;6.60;;
16093;SDS011;8151;47.824;12.092;2023-01-19T07:36:13;9.30;;;6.70;;
16093;SDS011;8151;47.824;12.092;2023-01-19T07:38:42;19.07;;;6.03;;
16093;SDS011;8151;47.824;12.092;2023-01-19T07:41:11;9.70;;;6.40;;
16093;SDS011;8151;47.824;12.092;2023-01-19T07:43:39;16.13;;;6.37;;
16093;SDS011;8151;47.824;12.092;2023-01-19T07:46:08;8.97;;;5.63;;
16093;SDS011;8151;47.824;12.092;2023-01-19T07:48:36;11.70;;;5.77;;
16093;SDS011;8151;47.824;12.092;2023-01-19T07:51:05;10.37;;;6.53;;
16093;SDS011;8151;47.824;12.092;2023-01-19T07:53:40;9.30;;;5.97;;
16093;SDS011;8151;47.824;12.092;2023-01-19T07:56:08;7.17;;;5.70;;
16093;SDS011;8151;47.824;12.092;2023-01-19T07:58:38;8.17;;;5.47;;
16093;SDS011;8151;47.824;12.092;2023-01-19T08:01:06;8.20;;;5.10;;
16093;SDS011;8151;47.824;12.092;2023-01-19T08:03:35;8.10;;;5.93;;
16093;SDS011;8151;47.824;12.092;2023-01-19T08:06:05;8.60;;;5.80;;
16093;SDS011;8151;47.824;12.092;2023-01-19T08:08:34;8.30;;;5.63;;
16093;SDS011;8151;47.824;12.092;2023-01-19T08:11:04;7.30;;;5.30;;
16093;SDS011;8151;47.824;12.092;2023-01-19T08:13:34;7.63;;;5.63;;
16093;SDS011;8151;47.824;12.092;2023-01-19T08:16:02;8.50;;;5.60;;
16093;SDS011;8151;47.824;12.092;2023-01-19T08:18:31;9.37;;;6.13;;
16093;SDS011;8151;47.824;12.092;2023-01-19T08:21:00;10.43;;;5.80;;
16093;SDS011;8151;47.824;12.092;2023-01-19T08:23:28;12.40;;;6.07;;
16093;SDS011;8151;47.824;12.092;2023-01-19T08:26:17;9.13;;;6.57;;
16093;SDS011;8151;47.824;12.092;2023-01-19T08:28:46;11.20;;;6.30;;
16093;SDS011;8151;47.824;12.092;2023-01-19T08:31:14;8.73;;;5.93;;
16093;SDS011;8151;47.824;12.092;2023-01-19T08:33:48;11.70;;;6.17;;
16093;SDS011;8151;47.824;12.092;2023-01-19T08:36:17;10.00;;;6.13;;
16093;SDS011;8151;47.824;12.092;2023-01-19T08:38:45;16.00;;;8.17;;
16093;SDS011;8151;47.824;12.092;2023-01-19T08:41:14;11.33;;;6.23;;
16093;SDS011;8151;47.824;12.092;2023-01-19T08:43:44;11.93;;;6.50;;
16093;SDS011;8151;47.824;12.092;2023-01-19T08:46:13;11.07;;;6.17;;
16093;SDS011;8151;47.824;12.092;2023-01-19T08:48:44;16.03;;;6.63;;
16093;SDS011;8151;47.824;12.092;2023-01-19T08:51:13;10.50;;;6.20;;
16093;SDS011;8151;47.824;12.092;2023-01-19T08:53:42;11.67;;;6.77;;
16093;SDS011;8151;47.824;12.092;2023-01-19T08:56:11;12.80;;;6.23;;
16093;SDS011;8151;47.824;12.092;2023-01-19T08:58:40;9.10;;;5.60;;
16093;SDS011;8151;47.824;12.092;2023-01-19T09:01:11;6.23;;;5.37;;
16093;SDS011;8151;47.824;12.092;2023-01-19T09:03:42;14.27;;;6.73;;
16093;SDS011;8151;47.824;12.092;2023-01-19T09:06:11;15.57;;;6.77;;
16093;SDS011;8151;47.824;12.092;2023-01-19T09:08:42;9.17;;;6.10;;
16093;SDS011;8151;47.824;12.092;2023-01-19T09:11:11;8.97;;;5.97;;
16093;SDS011;8151;47.824;12.092;2023-01-19T09:13:41;14.33;;;5.67;;
16093;SDS011;8151;47.824;12.092;2023-01-19T09:16:11;8.37;;;5.33;;
16093;SDS011;8151;47.824;12.092;2023-01-19T09:18:41;9.67;;;5.70;;
16093;SDS011;8151;47.824;12.092;2023-01-19T09:21:11;8.13;;;5.90;;
16093;SDS011;8151;47.824;12.092;2023-01-19T09:23:41;9.73;;;6.00;;
16093;SDS011;8151;47.824;12.092;2023-01-19T09:26:09;8.80;;;6.00;;
16093;SDS011;8151;47.824;12.092;2023-01-19T09:28:38;10.43;;;6.53;;
16093;SDS011;8151;47.824;12.092;2023-01-19T09:31:06;7.80;;;5.73;;
16093;SDS011;8151;47.824;12.092;2023-01-19T09:33:37;9.73;;;5.50;;
16093;SDS011;8151;47.824;12.092;2023-01-19T09:36:06;9.27;;;5.13;;
16093;SDS011;8151;47.824;12.092;2023-01-19T09:38:34;6.83;;;4.97;;
16093;SDS011;8151;47.824;12.092;2023-01-19T09:41:08;6.63;;;4.93;;
16093;SDS011;8151;47.824;12.092;2023-01-19T09:43:43;13.50;;;4.97;;
16093;SDS011;8151;47.824;12.092;2023-01-19T09:46:16;6.57;;;4.70;;
16093;SDS011;8151;47.824;12.092;2023-01-19T09:48:50;5.73;;;4.93;;
16093;SDS011;8151;47.824;12.092;2023-01-19T09:51:20;7.00;;;5.00;;
16093;SDS011;8151;47.824;12.092;2023-01-19T09:53:52;11.53;;;4.93;;
16093;SDS011;8151;47.824;12.092;2023-01-19T09:56:24;7.10;;;4.83;;
16093;SDS011;8151;47.824;12.092;2023-01-19T09:58:55;12.77;;;7.07;;
16093;SDS011;8151;47.824;12.092;2023-01-19T10:01:32;6.67;;;4.73;;
16093;SDS011;8151;47.824;12.092;2023-01-19T10:07:12;16.23;;;8.93;;
16093;SDS011;8151;47.824;12.092;2023-01-19T10:10:03;11.83;;;6.27;;
16093;SDS011;8151;47.824;12.092;2023-01-19T10:12:41;13.37;;;6.10;;
16093;SDS011;8151;47.824;12.092;2023-01-19T10:15:19;7.13;;;5.57;;
16093;SDS011;8151;47.824;12.092;2023-01-19T10:17:59;6.37;;;4.73;;
16093;SDS011;8151;47.824;12.092;2023-01-19T10:20:40;10.93;;;4.97;;
16093;SDS011;8151;47.824;12.092;2023-01-19T10:23:18;14.87;;;5.60;;
16093;SDS011;8151;47.824;12.092;2023-01-19T10:25:52;4.80;;;3.87;;
16093;SDS011;8151;47.824;12.092;2023-01-19T10:28:22;5.27;;;4.30;;
16093;SDS011;8151;47.824;12.092;2023-01-19T10:30:53;6.50;;;4.10;;
16093;SDS011;8151;47.824;12.092;2023-01-19T10:33:22;10.23;;;4.93;;
16093;SDS011;8151;47.824;12.092;2023-01-19T10:35:52;6.27;;;4.50;;
16093;SDS011;8151;47.824;12.092;2023-01-19T10:38:20;6.87;;;4.27;;
16093;SDS011;8151;47.824;12.092;2023-01-19T10:40:50;7.43;;;4.20;;
16093;SDS011;8151;47.824;12.092;2023-01-19T10:43:37;5.60;;;3.60;;
16093;SDS011;8151;47.824;12.092;2023-01-19T10:46:15;5.03;;;3.70;;
16093;SDS011;8151;47.824;12.092;2023-01-19T10:48:48;6.00;;;4.27;;
16093;SDS011;8151;47.824;12.092;2023-01-19T10:51:19;6.70;;;4.83;;
16093;SDS011;8151;47.824;12.092;2023-01-19T10:53:58;7.07;;;4.40;;
16093;SDS011;8151;47.824;12.092;2023-01-19T10:56:29;10.10;;;4.43;;
16093;SDS011;8151;47.824;12.092;2023-01-19T10:59:00;5.63;;;4.10;;
16093;SDS011;8151;47.824;12.092;2023-01-19T11:01:30;4.70;;;3.80;;
16093;SDS011;8151;47.824;12.092;2023-01-19T11:07:10;4.27;;;3.67;;
16093;SDS011;8151;47.824;12.092;2023-01-19T11:09:41;6.00;;;4.07;;
16093;SDS011;8151;47.824;12.092;2023-01-19T11:12:15;5.13;;;4.03;;
16093;SDS011;8151;47.824;12.092;2023-01-19T11:14:46;6.43;;;4.10;;
16093;SDS011;8151;47.824;12.092;2023-01-19T11:17:17;5.73;;;4.13;;
16093;SDS011;8151;47.824;12.092;2023-01-19T11:19:52;5.53;;;3.87;;
16093;SDS011;8151;47.824;12.092;2023-01-19T11:22:26;6.87;;;4.50;;
16093;SDS011;8151;47.824;12.092;2023-01-19T11:24:57;8.53;;;4.67;;
16093;SDS011;8151;47.824;12.092;2023-01-19T11:27:26;4.57;;;3.73;;
16093;SDS011;8151;47.824;12.092;2023-01-19T11:29:59;5.87;;;4.30;;
16093;SDS011;8151;47.824;12.092;2023-01-19T11:32:33;5.50;;;3.80;;
16093;SDS011;8151;47.824;12.092;2023-01-19T11:38:14;6.07;;;3.70;;
16093;SDS011;8151;47.824;12.092;2023-01-19T11:40:49;8.87;;;3.47;;
16093;SDS011;8151;47.824;12.092;2023-01-19T11:43:19;8.57;;;4.07;;
16093;SDS011;8151;47.824;12.092;2023-01-19T11:45:49;9.97;;;3.80;;
16093;SDS011;8151;47.824;12.092;2023-01-19T11:48:21;5.80;;;3.90;;
16093;SDS011;8151;47.824;12.092;2023-01-19T11:50:54;6.30;;;3.93;;
16093;SDS011;8151;47.824;12.092;2023-01-19T11:53:29;4.47;;;3.50;;
16093;SDS011;8151;47.824;12.092;2023-01-19T11:56:01;4.03;;;3.10;;
16093;SDS011;8151;47.824;12.092;2023-01-19T11:58:36;4.47;;;3.37;;
16093;SDS011;8151;47.824;12.092;2023-01-19T12:01:06;4.50;;;3.37;;
16093;SDS011;8151;47.824;12.092;2023-01-19T12:03:48;6.50;;;3.60;;
16093;SDS011;8151;47.824;12.092;2023-01-19T12:06:23;5.83;;;3.50;;
16093;SDS011;8151;47.824;12.092;2023-01-19T12:08:56;5.83;;;3.33;;
16093;SDS011;8151;47.824;12.092;2023-01-19T12:11:29;6.37;;;3.50;;
16093;SDS011;8151;47.824;12.092;2023-01-19T12:13:59;5.87;;;4.13;;
16093;SDS011;8151;47.824;12.092;2023-01-19T12:16:29;4.37;;;3.67;;
16093;SDS011;8151;47.824;12.092;2023-01-19T12:19:02;9.00;;;3.80;;
16093;SDS011;8151;47.824;12.092;2023-01-19T12:21:33;6.90;;;3.50;;
16093;SDS011;8151;47.824;12.092;2023-01-19T12:24:06;5.50;;;3.47;;
16093;SDS011;8151;47.824;12.092;2023-01-19T12:26:43;5.67;;;3.57;;
16093;SDS011;8151;47.824;12.092;2023-01-19T12:29:18;16.03;;;3.37;;
16093;SDS011;8151;47.824;12.092;2023-01-19T12:34:45;4.60;;;3.10;;
16093;SDS011;8151;47.824;12.092;2023-01-19T12:37:27;4.80;;;3.30;;
16093;SDS011;8151;47.824;12.092;2023-01-19T12:40:19;4.80;;;3.33;;
16093;SDS011;8151;47.824;12.092;2023-01-19T12:42:56;5.23;;;3.13;;
16093;SDS011;8151;47.824;12.092;2023-01-19T12:45:30;5.47;;;3.87;;
16093;SDS011;8151;47.824;12.092;2023-01-19T12:48:00;4.80;;;3.40;;
16093;SDS011;8151;47.824;12.092;2023-01-19T12:50:32;3.70;;;3.30;;
16093;SDS011;8151;47.824;12.092;2023-01-19T12:53:05;4.10;;;3.20;;
16093;SDS011;8151;47.824;12.092;2023-01-19T12:55:48;3.27;;;2.97;;
16093;SDS011;8151;47.824;12.092;2023-01-19T12:58:25;4.77;;;3.10;;
16093;SDS011;8151;47.824;12.092;2023-01-19T13:03:42;4.57;;;3.80;;
16093;SDS011;8151;47.824;12.092;2023-01-19T13:06:13;5.33;;;2.97;;
16093;SDS011;8151;47.824;12.092;2023-01-19T13:08:59;5.93;;;3.10;;
16093;SDS011;8151;47.824;12.092;2023-01-19T13:11:29;4.03;;;3.07;;
16093;SDS011;8151;47.824;12.092;2023-01-19T13:17:04;8.60;;;5.53;;
16093;SDS011;8151;47.824;12.092;2023-01-19T13:19:50;6.57;;;4.00;;
16093;SDS011;8151;47.824;12.092;2023-01-19T13:25:32;7.87;;;5.20;;
16093;SDS011;8151;47.824;12.092;2023-01-19T13:28:07;6.77;;;3.73;;
16093;SDS011;8151;47.824;12.092;2023-01-19T13:30:38;5.70;;;3.50;;
16093;SDS011;8151;47.824;12.092;2023-01-19T13:33:18;4.57;;;3.40;;
16093;SDS011;8151;47.824;12.092;2023-01-19T13:35:53;6.27;;;3.57;;
16093;SDS011;8151;47.824;12.092;2023-01-19T13:38:25;5.63;;;3.93;;
16093;SDS011;8151;47.824;12.092;2023-01-19T13:40:55;6.50;;;4.37;;
16093;SDS011;8151;47.824;12.092;2023-01-19T13:43:31;6.00;;;4.20;;
16093;SDS011;8151;47.824;12.092;2023-01-19T13:46:04;6.33;;;3.77;;
16093;SDS011;8151;47.824;12.092;2023-01-19T13:48:33;6.23;;;4.03;;
16093;SDS011;8151;47.824;12.092;2023-01-19T13:51:02;5.43;;;3.63;;
16093;SDS011;8151;47.824;12.092;2023-01-19T13:53:32;11.57;;;3.33;;
16093;SDS011;8151;47.824;12.092;2023-01-19T13:56:11;4.73;;;3.23;;
16093;SDS011;8151;47.824;12.092;2023-01-19T13:59:00;9.07;;;3.83;;
16093;SDS011;8151;47.824;12.092;2023-01-19T14:01:39;4.27;;;3.07;;
16093;SDS011;8151;47.824;12.092;2023-01-19T14:06:57;12.27;;;3.30;;
16093;SDS011;8151;47.824;12.092;2023-01-19T14:09:27;4.37;;;3.17;;
16093;SDS011;8151;47.824;12.092;2023-01-19T14:12:03;3.97;;;3.03;;
16093;SDS011;8151;47.824;12.092;2023-01-19T14:14:39;4.97;;;3.27;;
16093;SDS011;8151;47.824;12.092;2023-01-19T14:17:20;5.17;;;3.33;;
16093;SDS011;8151;47.824;12.092;2023-01-19T14:19:51;11.40;;;7.23;;
16093;SDS011;8151;47.824;12.092;2023-01-19T14:22:21;7.77;;;4.90;;
16093;SDS011;8151;47.824;12.092;2023-01-19T14:25:20;5.03;;;3.60;;
16093;SDS011;8151;47.824;12.092;2023-01-19T14:30:55;4.77;;;3.60;;
16093;SDS011;8151;47.824;12.092;2023-01-19T14:33:34;4.67;;;3.40;;
16093;SDS011;8151;47.824;12.092;2023-01-19T14:36:07;4.93;;;3.20;;
16093;SDS011;8151;47.824;12.092;2023-01-19T14:38:41;3.00;;;2.70;;
16093;SDS011;8151;47.824;12.092;2023-01-19T14:41:11;4.53;;;2.87;;
16093;SDS011;8151;47.824;12.092;2023-01-19T14:43:48;3.23;;;2.93;;
16093;SDS011;8151;47.824;12.092;2023-01-19T14:46:18;7.13;;;3.40;;
16093;SDS011;8151;47.824;12.092;2023-01-19T14:48:48;10.53;;;3.50;;
16093;SDS011;8151;47.824;12.092;2023-01-19T14:51:19;5.27;;;3.27;;
16093;SDS011;8151;47.824;12.092;2023-01-19T14:53:52;4.37;;;3.30;;
16093;SDS011;8151;47.824;12.092;2023-01-19T14:56:25;4.63;;;3.37;;
16093;SDS011;8151;47.824;12.092;2023-01-19T14:58:55;5.27;;;3.53;;
16093;SDS011;8151;47.824;12.092;2023-01-19T15:01:26;5.57;;;3.37;;
16093;SDS011;8151;47.824;12.092;2023-01-19T15:03:57;5.53;;;3.63;;
16093;SDS011;8151;47.824;12.092;2023-01-19T15:06:25;5.37;;;2.93;;
16093;SDS011;8151;47.824;12.092;2023-01-19T15:09:09;6.33;;;3.30;;
16093;SDS011;8151;47.824;12.092;2023-01-19T15:11:39;5.07;;;3.33;;
16093;SDS011;8151;47.824;12.092;2023-01-19T15:14:09;5.07;;;3.47;;
16093;SDS011;8151;47.824;12.092;2023-01-19T15:16:41;7.73;;;4.97;;
16093;SDS011;8151;47.824;12.092;2023-01-19T15:19:11;12.50;;;5.93;;
16093;SDS011;8151;47.824;12.092;2023-01-19T15:21:40;7.70;;;4.43;;
16093;SDS011;8151;47.824;12.092;2023-01-19T15:24:08;10.33;;;5.40;;
16093;SDS011;8151;47.824;12.092;2023-01-19T15:26:37;8.50;;;4.57;;
16093;SDS011;8151;47.824;12.092;2023-01-19T15:29:15;4.70;;;3.50;;
16093;SDS011;8151;47.824;12.092;2023-01-19T15:31:49;4.83;;;3.30;;
16093;SDS011;8151;47.824;12.092;2023-01-19T15:34:18;6.87;;;4.40;;
16093;SDS011;8151;47.824;12.092;2023-01-19T15:36:47;4.30;;;3.53;;